Airfield :
LOGIN :

Register | Disclaimer

   EN    FR    IT 

 










Legend :    VFR   Marginal VFR   IFR   Intensive IFR   Very Intensive IFR
Visi :
Ceiling :
>= 8 km
>= 3000ft
5 to 8 km
1000 to 3000 ft
1500m to 5 km
500 to 1000 ft
800 to 1500m
200 to 500 ft
< 800m
< 200 ft
Symbols :   Thunderstorms  Fog  Heavy snow  Heavy precipitations  Wind > 20 kt
SIGMETs :     Misc.  Thunderstorms  Icing  Turbulence  Mountain Waves  Volcanic Ashes






- Airport Elevation : 70 ft
- IATA code : WBG


ETNS - Schleswig

CURRENT METAR :
  • 240902Z 24010KT 4000 -DZ FEW008 BKN012 15/13 Q1010 GRN BLU TEMPO GRN

EXPIRED METARs :
  • 240859Z 24009KT 5000 -DZ FEW008 BKN010 15/13 Q1010 GRN BLU TEMPO GRN
  • 240843Z 24009KT 8000 -DZ BKN010 15/13 Q1010 GRN BLU TEMPO GRN
  • 240825Z 23008KT 7000 -DZ SCT010 BKN016 14/12 Q1010 WHT BLU TEMPO GRN
  • 240820Z 23007KT 9999 SCT013 BKN020 14/12 Q1010 WHT BLU TEMPO GRN
  • 240750Z 23008KT 9999 BKN016 14/12 Q1010 WHT BLU TEMPO WHT
  • 240720Z 21006KT 9999 SCT040 BKN070 13/11 Q1010 BLU BLU
  • 240620Z 22005KT 9999 FEW030 BKN080 12/09 Q1010 BLU BLU

TAF AMD TAF ETNS
Valid from the 24 at 08:00 until the 24 at 17:00 UTC


240859Z 2408/2417 23010KT 9999 NSW FEW015 BKN030
TEMPO 2408/2417 26010G20KT 4000 -DZ BKN010 BKN020 BY ETGL



MET'MAP, your aeronautical weather chart ! - Copyright ORBIFLY December 2007 - Disclaimer

ORBIFLY MET'MAP TEAM :

Programming & Development : Alexandra Zaïnal
Concept & original design : Baudouin d'Aumeries
Assistance for programming : Marc-Olivier Méhu
Technical & hardware support : Manuel Goepfert

Contact : metmap@orbifly.com




SOURCES & CREDITS :

   NOAA